sensor_id;sensor_type;location;lat;lon;timestamp;P1;durP1;ratioP1;P2;durP2;ratioP2
14961;SDS011;56489;53.166;10.864;2022-11-11T00:01:04;5.03;;;1.98;;
14961;SDS011;56489;53.166;10.864;2022-11-11T00:03:31;3.70;;;2.22;;
14961;SDS011;56489;53.166;10.864;2022-11-11T00:05:59;3.95;;;2.08;;
14961;SDS011;56489;53.166;10.864;2022-11-11T00:08:30;5.60;;;2.40;;
14961;SDS011;56489;53.166;10.864;2022-11-11T00:11:01;4.18;;;1.98;;
14961;SDS011;56489;53.166;10.864;2022-11-11T00:13:38;5.22;;;2.85;;
14961;SDS011;56489;53.166;10.864;2022-11-11T00:16:10;3.53;;;2.00;;
14961;SDS011;56489;53.166;10.864;2022-11-11T00:18:42;3.50;;;1.75;;
14961;SDS011;56489;53.166;10.864;2022-11-11T00:21:28;4.82;;;2.00;;
14961;SDS011;56489;53.166;10.864;2022-11-11T00:24:24;5.78;;;2.42;;
14961;SDS011;56489;53.166;10.864;2022-11-11T00:27:12;4.07;;;1.90;;
14961;SDS011;56489;53.166;10.864;2022-11-11T00:29:39;4.25;;;2.42;;
14961;SDS011;56489;53.166;10.864;2022-11-11T00:32:07;3.92;;;2.08;;
14961;SDS011;56489;53.166;10.864;2022-11-11T00:34:50;4.65;;;2.10;;
14961;SDS011;56489;53.166;10.864;2022-11-11T00:37:36;3.63;;;2.55;;
14961;SDS011;56489;53.166;10.864;2022-11-11T00:40:04;4.68;;;2.80;;
14961;SDS011;56489;53.166;10.864;2022-11-11T00:42:31;6.03;;;2.35;;
14961;SDS011;56489;53.166;10.864;2022-11-11T00:44:58;6.82;;;2.50;;
14961;SDS011;56489;53.166;10.864;2022-11-11T00:47:25;5.53;;;2.38;;
14961;SDS011;56489;53.166;10.864;2022-11-11T00:50:15;3.67;;;2.45;;
14961;SDS011;56489;53.166;10.864;2022-11-11T00:53:09;4.60;;;2.03;;
14961;SDS011;56489;53.166;10.864;2022-11-11T00:55:38;3.92;;;2.00;;
14961;SDS011;56489;53.166;10.864;2022-11-11T00:58:06;4.90;;;2.65;;
14961;SDS011;56489;53.166;10.864;2022-11-11T01:00:33;6.38;;;2.40;;
14961;SDS011;56489;53.166;10.864;2022-11-11T01:03:00;2.42;;;2.10;;
14961;SDS011;56489;53.166;10.864;2022-11-11T01:05:27;3.20;;;2.10;;
14961;SDS011;56489;53.166;10.864;2022-11-11T01:07:54;4.18;;;2.15;;
14961;SDS011;56489;53.166;10.864;2022-11-11T01:10:21;4.80;;;2.22;;
14961;SDS011;56489;53.166;10.864;2022-11-11T01:13:12;4.55;;;2.58;;
14961;SDS011;56489;53.166;10.864;2022-11-11T01:15:47;6.45;;;2.78;;
14961;SDS011;56489;53.166;10.864;2022-11-11T01:18:20;3.85;;;2.20;;
14961;SDS011;56489;53.166;10.864;2022-11-11T01:20:56;3.75;;;2.22;;
14961;SDS011;56489;53.166;10.864;2022-11-11T01:23:28;3.60;;;2.30;;
14961;SDS011;56489;53.166;10.864;2022-11-11T01:26:00;3.55;;;2.13;;
14961;SDS011;56489;53.166;10.864;2022-11-11T01:28:39;3.55;;;2.28;;
14961;SDS011;56489;53.166;10.864;2022-11-11T01:31:07;2.92;;;2.00;;
14961;SDS011;56489;53.166;10.864;2022-11-11T01:33:35;3.67;;;2.50;;
14961;SDS011;56489;53.166;10.864;2022-11-11T01:36:13;4.18;;;2.38;;
14961;SDS011;56489;53.166;10.864;2022-11-11T01:38:47;3.97;;;2.28;;
14961;SDS011;56489;53.166;10.864;2022-11-11T01:41:17;4.68;;;2.17;;
14961;SDS011;56489;53.166;10.864;2022-11-11T01:43:59;5.38;;;2.08;;
14961;SDS011;56489;53.166;10.864;2022-11-11T01:46:34;3.58;;;2.00;;
14961;SDS011;56489;53.166;10.864;2022-11-11T01:52:16;5.35;;;1.98;;
14961;SDS011;56489;53.166;10.864;2022-11-11T01:54:46;3.28;;;2.30;;
14961;SDS011;56489;53.166;10.864;2022-11-11T01:57:26;2.72;;;1.98;;
14961;SDS011;56489;53.166;10.864;2022-11-11T02:00:08;3.70;;;2.47;;
14961;SDS011;56489;53.166;10.864;2022-11-11T02:02:39;3.72;;;2.53;;
14961;SDS011;56489;53.166;10.864;2022-11-11T02:05:11;4.10;;;2.30;;
14961;SDS011;56489;53.166;10.864;2022-11-11T02:07:59;6.70;;;3.25;;
14961;SDS011;56489;53.166;10.864;2022-11-11T02:10:30;2.65;;;1.80;;
14961;SDS011;56489;53.166;10.864;2022-11-11T02:12:58;3.35;;;2.55;;
14961;SDS011;56489;53.166;10.864;2022-11-11T02:15:44;4.53;;;2.10;;
14961;SDS011;56489;53.166;10.864;2022-11-11T02:18:12;3.42;;;2.13;;
14961;SDS011;56489;53.166;10.864;2022-11-11T02:20:41;4.60;;;2.65;;
14961;SDS011;56489;53.166;10.864;2022-11-11T02:23:11;3.20;;;2.33;;
14961;SDS011;56489;53.166;10.864;2022-11-11T02:26:02;2.38;;;2.13;;
14961;SDS011;56489;53.166;10.864;2022-11-11T02:28:32;3.85;;;2.22;;
14961;SDS011;56489;53.166;10.864;2022-11-11T02:30:59;7.53;;;2.83;;
14961;SDS011;56489;53.166;10.864;2022-11-11T02:33:27;2.53;;;2.08;;
14961;SDS011;56489;53.166;10.864;2022-11-11T02:35:54;6.80;;;2.47;;
14961;SDS011;56489;53.166;10.864;2022-11-11T02:38:24;3.40;;;2.15;;
14961;SDS011;56489;53.166;10.864;2022-11-11T02:40:51;5.85;;;2.45;;
14961;SDS011;56489;53.166;10.864;2022-11-11T02:43:37;4.45;;;2.67;;
14961;SDS011;56489;53.166;10.864;2022-11-11T02:46:04;6.13;;;2.85;;
14961;SDS011;56489;53.166;10.864;2022-11-11T02:48:33;2.35;;;2.00;;
14961;SDS011;56489;53.166;10.864;2022-11-11T02:51:00;1.98;;;1.80;;
14961;SDS011;56489;53.166;10.864;2022-11-11T02:53:27;3.72;;;2.35;;
14961;SDS011;56489;53.166;10.864;2022-11-11T02:55:54;3.00;;;2.33;;
14961;SDS011;56489;53.166;10.864;2022-11-11T02:58:21;2.55;;;2.20;;
14961;SDS011;56489;53.166;10.864;2022-11-11T03:00:49;3.25;;;2.22;;
14961;SDS011;56489;53.166;10.864;2022-11-11T03:03:15;2.20;;;1.90;;
14961;SDS011;56489;53.166;10.864;2022-11-11T03:05:43;3.50;;;2.50;;
14961;SDS011;56489;53.166;10.864;2022-11-11T03:08:09;3.13;;;2.05;;
14961;SDS011;56489;53.166;10.864;2022-11-11T03:10:36;6.75;;;2.15;;
14961;SDS011;56489;53.166;10.864;2022-11-11T03:13:04;5.03;;;2.22;;
14961;SDS011;56489;53.166;10.864;2022-11-11T03:15:31;2.70;;;2.25;;
14961;SDS011;56489;53.166;10.864;2022-11-11T03:17:58;3.75;;;2.40;;
14961;SDS011;56489;53.166;10.864;2022-11-11T03:20:24;5.30;;;2.60;;
14961;SDS011;56489;53.166;10.864;2022-11-11T03:23:11;2.45;;;2.17;;
14961;SDS011;56489;53.166;10.864;2022-11-11T03:25:40;3.15;;;2.25;;
14961;SDS011;56489;53.166;10.864;2022-11-11T03:28:15;2.67;;;2.28;;
14961;SDS011;56489;53.166;10.864;2022-11-11T03:30:44;4.60;;;2.30;;
14961;SDS011;56489;53.166;10.864;2022-11-11T03:33:15;4.68;;;2.53;;
14961;SDS011;56489;53.166;10.864;2022-11-11T03:35:43;3.97;;;2.80;;
14961;SDS011;56489;53.166;10.864;2022-11-11T03:38:13;3.58;;;2.53;;
14961;SDS011;56489;53.166;10.864;2022-11-11T03:40:50;3.17;;;2.20;;
14961;SDS011;56489;53.166;10.864;2022-11-11T03:43:23;5.18;;;2.38;;
14961;SDS011;56489;53.166;10.864;2022-11-11T03:45:53;4.20;;;2.60;;
14961;SDS011;56489;53.166;10.864;2022-11-11T03:48:22;2.58;;;1.88;;
14961;SDS011;56489;53.166;10.864;2022-11-11T03:50:49;3.60;;;2.67;;
14961;SDS011;56489;53.166;10.864;2022-11-11T03:53:17;4.97;;;2.50;;
14961;SDS011;56489;53.166;10.864;2022-11-11T03:55:46;3.35;;;2.67;;
14961;SDS011;56489;53.166;10.864;2022-11-11T03:58:13;2.97;;;2.13;;
14961;SDS011;56489;53.166;10.864;2022-11-11T04:00:41;3.20;;;2.38;;
14961;SDS011;56489;53.166;10.864;2022-11-11T04:03:10;3.40;;;2.20;;
14961;SDS011;56489;53.166;10.864;2022-11-11T04:06:01;3.28;;;1.90;;
14961;SDS011;56489;53.166;10.864;2022-11-11T04:08:47;4.47;;;2.22;;
14961;SDS011;56489;53.166;10.864;2022-11-11T04:11:34;4.50;;;2.58;;
14961;SDS011;56489;53.166;10.864;2022-11-11T04:14:10;3.05;;;2.03;;
14961;SDS011;56489;53.166;10.864;2022-11-11T04:16:56;6.30;;;2.70;;
14961;SDS011;56489;53.166;10.864;2022-11-11T04:19:24;3.92;;;2.50;;
14961;SDS011;56489;53.166;10.864;2022-11-11T04:22:17;2.72;;;2.00;;
14961;SDS011;56489;53.166;10.864;2022-11-11T04:24:44;3.70;;;2.30;;
14961;SDS011;56489;53.166;10.864;2022-11-11T04:27:29;4.30;;;2.47;;
14961;SDS011;56489;53.166;10.864;2022-11-11T04:29:56;3.78;;;2.60;;
14961;SDS011;56489;53.166;10.864;2022-11-11T04:32:22;2.50;;;2.08;;
14961;SDS011;56489;53.166;10.864;2022-11-11T04:35:05;4.85;;;2.50;;
14961;SDS011;56489;53.166;10.864;2022-11-11T04:37:35;4.05;;;2.78;;
14961;SDS011;56489;53.166;10.864;2022-11-11T04:40:03;3.95;;;2.50;;
14961;SDS011;56489;53.166;10.864;2022-11-11T04:42:51;3.28;;;2.47;;
14961;SDS011;56489;53.166;10.864;2022-11-11T04:45:19;2.63;;;2.00;;
14961;SDS011;56489;53.166;10.864;2022-11-11T04:48:03;3.25;;;2.33;;
14961;SDS011;56489;53.166;10.864;2022-11-11T04:50:35;2.33;;;2.08;;
14961;SDS011;56489;53.166;10.864;2022-11-11T04:53:04;3.45;;;1.98;;
14961;SDS011;56489;53.166;10.864;2022-11-11T04:55:32;3.42;;;2.22;;
14961;SDS011;56489;53.166;10.864;2022-11-11T04:58:18;4.07;;;2.47;;
14961;SDS011;56489;53.166;10.864;2022-11-11T05:00:47;5.53;;;3.10;;
14961;SDS011;56489;53.166;10.864;2022-11-11T05:03:14;2.30;;;2.10;;
14961;SDS011;56489;53.166;10.864;2022-11-11T05:05:47;4.85;;;2.97;;
14961;SDS011;56489;53.166;10.864;2022-11-11T05:08:37;4.88;;;2.75;;
14961;SDS011;56489;53.166;10.864;2022-11-11T05:11:27;4.45;;;2.60;;
14961;SDS011;56489;53.166;10.864;2022-11-11T05:14:03;2.60;;;2.30;;
14961;SDS011;56489;53.166;10.864;2022-11-11T05:16:51;4.63;;;2.90;;
14961;SDS011;56489;53.166;10.864;2022-11-11T05:19:40;2.80;;;2.30;;
14961;SDS011;56489;53.166;10.864;2022-11-11T05:22:28;2.47;;;2.28;;
14961;SDS011;56489;53.166;10.864;2022-11-11T05:24:58;3.97;;;2.10;;
14961;SDS011;56489;53.166;10.864;2022-11-11T05:27:51;7.80;;;3.15;;
14961;SDS011;56489;53.166;10.864;2022-11-11T05:30:19;4.45;;;2.70;;
14961;SDS011;56489;53.166;10.864;2022-11-11T05:32:47;3.15;;;2.63;;
14961;SDS011;56489;53.166;10.864;2022-11-11T05:35:15;3.72;;;2.83;;
14961;SDS011;56489;53.166;10.864;2022-11-11T05:37:41;5.82;;;2.80;;
14961;SDS011;56489;53.166;10.864;2022-11-11T05:40:09;4.10;;;2.83;;
14961;SDS011;56489;53.166;10.864;2022-11-11T05:42:40;4.05;;;2.25;;
14961;SDS011;56489;53.166;10.864;2022-11-11T05:45:17;2.72;;;2.10;;
14961;SDS011;56489;53.166;10.864;2022-11-11T05:47:43;7.20;;;2.75;;
14961;SDS011;56489;53.166;10.864;2022-11-11T05:50:10;2.80;;;2.55;;
14961;SDS011;56489;53.166;10.864;2022-11-11T05:52:37;6.95;;;2.80;;
14961;SDS011;56489;53.166;10.864;2022-11-11T05:55:04;7.85;;;2.80;;
14961;SDS011;56489;53.166;10.864;2022-11-11T05:57:32;5.28;;;2.55;;
14961;SDS011;56489;53.166;10.864;2022-11-11T05:59:58;3.50;;;2.80;;
14961;SDS011;56489;53.166;10.864;2022-11-11T06:02:25;4.00;;;2.78;;
14961;SDS011;56489;53.166;10.864;2022-11-11T06:04:52;4.95;;;2.90;;
14961;SDS011;56489;53.166;10.864;2022-11-11T06:07:19;6.63;;;3.47;;
14961;SDS011;56489;53.166;10.864;2022-11-11T06:09:46;3.53;;;2.60;;
14961;SDS011;56489;53.166;10.864;2022-11-11T06:12:12;5.22;;;2.67;;
14961;SDS011;56489;53.166;10.864;2022-11-11T06:14:39;5.35;;;3.00;;
14961;SDS011;56489;53.166;10.864;2022-11-11T06:17:06;5.43;;;3.47;;
14961;SDS011;56489;53.166;10.864;2022-11-11T06:19:33;3.90;;;2.95;;
14961;SDS011;56489;53.166;10.864;2022-11-11T06:22:00;4.28;;;2.70;;
14961;SDS011;56489;53.166;10.864;2022-11-11T06:24:29;3.70;;;2.53;;
14961;SDS011;56489;53.166;10.864;2022-11-11T06:26:56;3.78;;;2.70;;
14961;SDS011;56489;53.166;10.864;2022-11-11T06:29:23;4.05;;;2.55;;
14961;SDS011;56489;53.166;10.864;2022-11-11T06:31:50;3.97;;;2.95;;
14961;SDS011;56489;53.166;10.864;2022-11-11T06:34:16;3.15;;;2.50;;
14961;SDS011;56489;53.166;10.864;2022-11-11T06:36:43;4.10;;;2.83;;
14961;SDS011;56489;53.166;10.864;2022-11-11T06:39:10;4.28;;;2.47;;
14961;SDS011;56489;53.166;10.864;2022-11-11T06:41:37;5.25;;;2.60;;
14961;SDS011;56489;53.166;10.864;2022-11-11T06:44:03;3.17;;;2.85;;
14961;SDS011;56489;53.166;10.864;2022-11-11T06:46:30;7.95;;;2.92;;
14961;SDS011;56489;53.166;10.864;2022-11-11T06:48:57;3.17;;;2.67;;
14961;SDS011;56489;53.166;10.864;2022-11-11T06:51:24;3.47;;;2.90;;
14961;SDS011;56489;53.166;10.864;2022-11-11T06:53:51;4.95;;;2.88;;
14961;SDS011;56489;53.166;10.864;2022-11-11T06:56:18;6.55;;;2.78;;
14961;SDS011;56489;53.166;10.864;2022-11-11T06:58:44;3.30;;;2.45;;
14961;SDS011;56489;53.166;10.864;2022-11-11T07:01:11;5.53;;;2.83;;
14961;SDS011;56489;53.166;10.864;2022-11-11T07:03:38;7.00;;;2.60;;
14961;SDS011;56489;53.166;10.864;2022-11-11T07:06:05;4.20;;;2.97;;
14961;SDS011;56489;53.166;10.864;2022-11-11T07:08:32;3.38;;;2.50;;
14961;SDS011;56489;53.166;10.864;2022-11-11T07:10:58;2.22;;;2.03;;
14961;SDS011;56489;53.166;10.864;2022-11-11T07:13:36;3.10;;;2.47;;
14961;SDS011;56489;53.166;10.864;2022-11-11T07:16:03;3.92;;;2.75;;
14961;SDS011;56489;53.166;10.864;2022-11-11T07:18:30;5.32;;;2.60;;
14961;SDS011;56489;53.166;10.864;2022-11-11T07:20:56;3.35;;;2.80;;
14961;SDS011;56489;53.166;10.864;2022-11-11T07:23:23;5.75;;;3.05;;
14961;SDS011;56489;53.166;10.864;2022-11-11T07:25:49;4.10;;;3.25;;
14961;SDS011;56489;53.166;10.864;2022-11-11T07:28:16;6.13;;;3.63;;
14961;SDS011;56489;53.166;10.864;2022-11-11T07:30:43;6.28;;;3.80;;
14961;SDS011;56489;53.166;10.864;2022-11-11T07:33:10;6.32;;;4.35;;
14961;SDS011;56489;53.166;10.864;2022-11-11T07:35:37;6.28;;;4.47;;
14961;SDS011;56489;53.166;10.864;2022-11-11T07:38:03;6.95;;;3.67;;
14961;SDS011;56489;53.166;10.864;2022-11-11T07:40:30;7.47;;;4.50;;
14961;SDS011;56489;53.166;10.864;2022-11-11T07:42:57;5.40;;;3.85;;
14961;SDS011;56489;53.166;10.864;2022-11-11T07:45:23;5.97;;;4.40;;
14961;SDS011;56489;53.166;10.864;2022-11-11T07:47:50;5.85;;;5.10;;
14961;SDS011;56489;53.166;10.864;2022-11-11T07:50:17;5.80;;;4.25;;
14961;SDS011;56489;53.166;10.864;2022-11-11T07:52:47;5.18;;;4.03;;
14961;SDS011;56489;53.166;10.864;2022-11-11T07:55:14;5.00;;;4.50;;
14961;SDS011;56489;53.166;10.864;2022-11-11T07:57:41;6.95;;;4.80;;
14961;SDS011;56489;53.166;10.864;2022-11-11T08:00:08;4.40;;;3.90;;
14961;SDS011;56489;53.166;10.864;2022-11-11T08:02:35;6.13;;;4.95;;
14961;SDS011;56489;53.166;10.864;2022-11-11T08:05:02;6.60;;;4.20;;
14961;SDS011;56489;53.166;10.864;2022-11-11T08:07:29;5.97;;;4.00;;
14961;SDS011;56489;53.166;10.864;2022-11-11T08:09:55;7.32;;;5.07;;
14961;SDS011;56489;53.166;10.864;2022-11-11T08:12:22;7.50;;;5.03;;
14961;SDS011;56489;53.166;10.864;2022-11-11T08:15:07;7.25;;;5.10;;
14961;SDS011;56489;53.166;10.864;2022-11-11T08:17:37;7.93;;;5.10;;
14961;SDS011;56489;53.166;10.864;2022-11-11T08:20:07;6.10;;;3.47;;
14961;SDS011;56489;53.166;10.864;2022-11-11T08:22:38;6.05;;;4.55;;
14961;SDS011;56489;53.166;10.864;2022-11-11T08:25:07;6.90;;;4.70;;
14961;SDS011;56489;53.166;10.864;2022-11-11T08:27:37;7.10;;;5.07;;
14961;SDS011;56489;53.166;10.864;2022-11-11T08:30:05;7.55;;;5.13;;
14961;SDS011;56489;53.166;10.864;2022-11-11T08:32:33;8.52;;;4.93;;
14961;SDS011;56489;53.166;10.864;2022-11-11T08:35:00;7.60;;;4.80;;
14961;SDS011;56489;53.166;10.864;2022-11-11T08:37:27;7.53;;;4.55;;
14961;SDS011;56489;53.166;10.864;2022-11-11T08:39:54;6.40;;;4.43;;
14961;SDS011;56489;53.166;10.864;2022-11-11T08:42:21;7.75;;;4.78;;
14961;SDS011;56489;53.166;10.864;2022-11-11T08:44:47;7.68;;;5.07;;
14961;SDS011;56489;53.166;10.864;2022-11-11T08:47:14;6.95;;;4.70;;
14961;SDS011;56489;53.166;10.864;2022-11-11T08:49:41;5.65;;;4.90;;
14961;SDS011;56489;53.166;10.864;2022-11-11T08:52:08;8.75;;;4.80;;
14961;SDS011;56489;53.166;10.864;2022-11-11T08:54:35;7.65;;;5.13;;
14961;SDS011;56489;53.166;10.864;2022-11-11T08:57:02;6.30;;;5.45;;
14961;SDS011;56489;53.166;10.864;2022-11-11T08:59:29;6.68;;;4.93;;
14961;SDS011;56489;53.166;10.864;2022-11-11T09:01:55;6.43;;;4.18;;
14961;SDS011;56489;53.166;10.864;2022-11-11T09:04:22;5.13;;;4.07;;
14961;SDS011;56489;53.166;10.864;2022-11-11T09:07:10;5.22;;;4.40;;
14961;SDS011;56489;53.166;10.864;2022-11-11T09:09:37;4.90;;;4.10;;
14961;SDS011;56489;53.166;10.864;2022-11-11T09:12:04;6.45;;;4.35;;
14961;SDS011;56489;53.166;10.864;2022-11-11T09:14:31;5.38;;;3.97;;
14961;SDS011;56489;53.166;10.864;2022-11-11T09:16:57;5.35;;;3.78;;
14961;SDS011;56489;53.166;10.864;2022-11-11T09:19:24;6.13;;;4.13;;
14961;SDS011;56489;53.166;10.864;2022-11-11T09:21:51;7.68;;;4.30;;
14961;SDS011;56489;53.166;10.864;2022-11-11T09:24:18;4.68;;;3.92;;
14961;SDS011;56489;53.166;10.864;2022-11-11T09:26:48;6.40;;;3.92;;
14961;SDS011;56489;53.166;10.864;2022-11-11T09:29:16;6.88;;;4.13;;
14961;SDS011;56489;53.166;10.864;2022-11-11T09:31:43;6.53;;;3.97;;
14961;SDS011;56489;53.166;10.864;2022-11-11T09:34:12;7.95;;;4.65;;
14961;SDS011;56489;53.166;10.864;2022-11-11T09:36:40;4.80;;;4.28;;
14961;SDS011;56489;53.166;10.864;2022-11-11T09:39:08;6.03;;;4.40;;
14961;SDS011;56489;53.166;10.864;2022-11-11T09:47:34;7.60;;;4.18;;
14961;SDS011;56489;53.166;10.864;2022-11-11T09:50:11;6.93;;;4.22;;
14961;SDS011;56489;53.166;10.864;2022-11-11T09:55:27;6.45;;;4.47;;
14961;SDS011;56489;53.166;10.864;2022-11-11T09:58:05;5.03;;;4.32;;
14961;SDS011;56489;53.166;10.864;2022-11-11T10:00:40;6.47;;;4.40;;
14961;SDS011;56489;53.166;10.864;2022-11-11T10:03:11;5.75;;;4.15;;
14961;SDS011;56489;53.166;10.864;2022-11-11T10:05:44;4.45;;;3.70;;
14961;SDS011;56489;53.166;10.864;2022-11-11T10:08:28;4.72;;;3.78;;
14961;SDS011;56489;53.166;10.864;2022-11-11T10:11:00;4.68;;;4.07;;
14961;SDS011;56489;53.166;10.864;2022-11-11T10:13:31;6.13;;;4.47;;
14961;SDS011;56489;53.166;10.864;2022-11-11T10:18:47;6.28;;;4.63;;
14961;SDS011;56489;53.166;10.864;2022-11-11T10:21:33;5.90;;;4.80;;
14961;SDS011;56489;53.166;10.864;2022-11-11T10:24:31;5.70;;;4.57;;
14961;SDS011;56489;53.166;10.864;2022-11-11T10:27:26;8.63;;;4.68;;
14961;SDS011;56489;53.166;10.864;2022-11-11T10:29:54;5.03;;;3.97;;
14961;SDS011;56489;53.166;10.864;2022-11-11T10:32:25;7.45;;;4.85;;
14961;SDS011;56489;53.166;10.864;2022-11-11T10:34:56;6.35;;;4.20;;
14961;SDS011;56489;53.166;10.864;2022-11-11T10:37:40;6.53;;;4.15;;
14961;SDS011;56489;53.166;10.864;2022-11-11T10:42:48;6.75;;;3.75;;
14961;SDS011;56489;53.166;10.864;2022-11-11T10:45:26;4.32;;;3.92;;
14961;SDS011;56489;53.166;10.864;2022-11-11T10:48:01;4.82;;;3.55;;
14961;SDS011;56489;53.166;10.864;2022-11-11T10:50:37;5.18;;;3.40;;
14961;SDS011;56489;53.166;10.864;2022-11-11T10:55:47;5.20;;;4.30;;
14961;SDS011;56489;53.166;10.864;2022-11-11T10:58:33;6.10;;;4.18;;
14961;SDS011;56489;53.166;10.864;2022-11-11T11:01:07;4.88;;;4.18;;
14961;SDS011;56489;53.166;10.864;2022-11-11T11:03:41;6.53;;;4.28;;
14961;SDS011;56489;53.166;10.864;2022-11-11T11:06:15;3.70;;;3.38;;
14961;SDS011;56489;53.166;10.864;2022-11-11T11:08:59;7.93;;;3.55;;
14961;SDS011;56489;53.166;10.864;2022-11-11T11:11:53;4.70;;;4.18;;
14961;SDS011;56489;53.166;10.864;2022-11-11T11:14:44;6.80;;;6.07;;
14961;SDS011;56489;53.166;10.864;2022-11-11T11:17:21;5.28;;;4.78;;
14961;SDS011;56489;53.166;10.864;2022-11-11T11:22:44;8.13;;;4.85;;
14961;SDS011;56489;53.166;10.864;2022-11-11T11:25:12;6.78;;;5.32;;
14961;SDS011;56489;53.166;10.864;2022-11-11T11:27:39;6.35;;;5.50;;
14961;SDS011;56489;53.166;10.864;2022-11-11T11:30:13;6.28;;;5.30;;
14961;SDS011;56489;53.166;10.864;2022-11-11T11:32:54;6.57;;;5.63;;
14961;SDS011;56489;53.166;10.864;2022-11-11T11:38:04;6.00;;;5.13;;
14961;SDS011;56489;53.166;10.864;2022-11-11T11:40:51;6.20;;;4.82;;
14961;SDS011;56489;53.166;10.864;2022-11-11T11:43:25;4.70;;;3.70;;
14961;SDS011;56489;53.166;10.864;2022-11-11T11:45:59;5.57;;;4.90;;
14961;SDS011;56489;53.166;10.864;2022-11-11T11:48:50;5.97;;;4.78;;
14961;SDS011;56489;53.166;10.864;2022-11-11T11:51:50;3.97;;;3.58;;
14961;SDS011;56489;53.166;10.864;2022-11-11T11:57:15;4.10;;;3.60;;
14961;SDS011;56489;53.166;10.864;2022-11-11T11:59:51;4.10;;;3.30;;
14961;SDS011;56489;53.166;10.864;2022-11-11T12:13:44;5.72;;;2.50;;
14961;SDS011;56489;53.166;10.864;2022-11-11T12:16:46;2.95;;;2.60;;
14961;SDS011;56489;53.166;10.864;2022-11-11T12:19:52;3.72;;;2.53;;
14961;SDS011;56489;53.166;10.864;2022-11-11T12:30:19;5.07;;;2.35;;
14961;SDS011;56489;53.166;10.864;2022-11-11T12:33:16;3.92;;;2.50;;
14961;SDS011;56489;53.166;10.864;2022-11-11T12:36:05;5.70;;;2.20;;
14961;SDS011;56489;53.166;10.864;2022-11-11T12:42:08;2.22;;;2.00;;
14961;SDS011;56489;53.166;10.864;2022-11-11T12:44:13;2.53;;;2.17;;
14961;SDS011;56489;53.166;10.864;2022-11-11T12:49:36;4.15;;;2.22;;
14961;SDS011;56489;53.166;10.864;2022-11-11T12:55:11;3.67;;;1.95;;
14961;SDS011;56489;53.166;10.864;2022-11-11T12:57:57;2.92;;;1.77;;
14961;SDS011;56489;53.166;10.864;2022-11-11T13:00:27;2.55;;;1.73;;
14961;SDS011;56489;53.166;10.864;2022-11-11T13:05:50;3.50;;;1.85;;
14961;SDS011;56489;53.166;10.864;2022-11-11T13:08:47;3.08;;;1.67;;
14961;SDS011;56489;53.166;10.864;2022-11-11T13:11:29;2.40;;;2.10;;
14961;SDS011;56489;53.166;10.864;2022-11-11T13:17:13;4.68;;;1.67;;
14961;SDS011;56489;53.166;10.864;2022-11-11T13:19:44;3.20;;;1.60;;
14961;SDS011;56489;53.166;10.864;2022-11-11T13:22:26;2.70;;;1.60;;
14961;SDS011;56489;53.166;10.864;2022-11-11T13:24:54;2.05;;;1.50;;
14961;SDS011;56489;53.166;10.864;2022-11-11T13:27:38;4.25;;;1.50;;
14961;SDS011;56489;53.166;10.864;2022-11-11T13:32:54;5.68;;;1.80;;
14961;SDS011;56489;53.166;10.864;2022-11-11T13:35:38;1.50;;;1.40;;
14961;SDS011;56489;53.166;10.864;2022-11-11T13:38:24;2.65;;;1.20;;
14961;SDS011;56489;53.166;10.864;2022-11-11T13:40:51;3.45;;;1.40;;
14961;SDS011;56489;53.166;10.864;2022-11-11T13:43:26;1.52;;;1.42;;
14961;SDS011;56489;53.166;10.864;2022-11-11T13:45:57;1.23;;;1.13;;
14961;SDS011;56489;53.166;10.864;2022-11-11T13:48:31;4.78;;;1.58;;
14961;SDS011;56489;53.166;10.864;2022-11-11T13:54:18;2.63;;;1.50;;
14961;SDS011;56489;53.166;10.864;2022-11-11T13:56:48;1.52;;;1.40;;
14961;SDS011;56489;53.166;10.864;2022-11-11T13:59:23;2.42;;;1.38;;
14961;SDS011;56489;53.166;10.864;2022-11-11T14:10:11;2.25;;;1.52;;
14961;SDS011;56489;53.166;10.864;2022-11-11T14:13:42;2.50;;;2.00;;
14961;SDS011;56489;53.166;10.864;2022-11-11T14:16:00;3.13;;;1.60;;
14961;SDS011;56489;53.166;10.864;2022-11-11T14:18:35;2.92;;;2.00;;
14961;SDS011;56489;53.166;10.864;2022-11-11T14:21:03;3.10;;;1.98;;
14961;SDS011;56489;53.166;10.864;2022-11-11T14:23:39;1.50;;;1.40;;
14961;SDS011;56489;53.166;10.864;2022-11-11T14:31:31;3.65;;;1.90;;
14961;SDS011;56489;53.166;10.864;2022-11-11T14:37:34;2.60;;;1.42;;
14961;SDS011;56489;53.166;10.864;2022-11-11T14:40:27;1.80;;;1.27;;
14961;SDS011;56489;53.166;10.864;2022-11-11T14:42:56;3.13;;;1.92;;
14961;SDS011;56489;53.166;10.864;2022-11-11T14:47:57;2.65;;;1.20;;
14961;SDS011;56489;53.166;10.864;2022-11-11T14:53:18;1.63;;;1.20;;
14961;SDS011;56489;53.166;10.864;2022-11-11T14:55:50;1.42;;;1.05;;
14961;SDS011;56489;53.166;10.864;2022-11-11T14:58:20;1.05;;;1.02;;
14961;SDS011;56489;53.166;10.864;2022-11-11T15:00:52;0.73;;;0.73;;
14961;SDS011;56489;53.166;10.864;2022-11-11T15:03:30;0.90;;;0.90;;
14961;SDS011;56489;53.166;10.864;2022-11-11T15:11:42;0.80;;;0.80;;
14961;SDS011;56489;53.166;10.864;2022-11-11T15:14:46;1.15;;;1.02;;
14961;SDS011;56489;53.166;10.864;2022-11-11T15:25:47;1.23;;;1.13;;
14961;SDS011;56489;53.166;10.864;2022-11-11T15:34:38;1.45;;;1.30;;
14961;SDS011;56489;53.166;10.864;2022-11-11T15:37:11;1.42;;;1.33;;
14961;SDS011;56489;53.166;10.864;2022-11-11T15:39:49;1.83;;;1.70;;
14961;SDS011;56489;53.166;10.864;2022-11-11T15:44:59;1.77;;;1.67;;
14961;SDS011;56489;53.166;10.864;2022-11-11T15:47:28;2.17;;;1.80;;
14961;SDS011;56489;53.166;10.864;2022-11-11T15:49:59;1.52;;;1.42;;
14961;SDS011;56489;53.166;10.864;2022-11-11T15:52:34;2.25;;;1.50;;
14961;SDS011;56489;53.166;10.864;2022-11-11T15:55:21;1.83;;;1.60;;
14961;SDS011;56489;53.166;10.864;2022-11-11T15:57:53;2.50;;;1.95;;
14961;SDS011;56489;53.166;10.864;2022-11-11T16:02:53;1.70;;;1.60;;
14961;SDS011;56489;53.166;10.864;2022-11-11T16:05:22;2.38;;;2.17;;
14961;SDS011;56489;53.166;10.864;2022-11-11T16:07:52;2.20;;;2.10;;
14961;SDS011;56489;53.166;10.864;2022-11-11T16:12:55;3.05;;;1.80;;
14961;SDS011;56489;53.166;10.864;2022-11-11T16:15:40;2.38;;;1.50;;
14961;SDS011;56489;53.166;10.864;2022-11-11T16:18:19;1.98;;;1.73;;
14961;SDS011;56489;53.166;10.864;2022-11-11T16:23:19;1.70;;;1.60;;
14961;SDS011;56489;53.166;10.864;2022-11-11T16:25:48;1.88;;;1.77;;
14961;SDS011;56489;53.166;10.864;2022-11-11T16:28:19;1.90;;;1.77;;
14961;SDS011;56489;53.166;10.864;2022-11-11T16:30:46;1.70;;;1.60;;
14961;SDS011;56489;53.166;10.864;2022-11-11T16:35:51;1.88;;;1.77;;
14961;SDS011;56489;53.166;10.864;2022-11-11T16:38:28;2.30;;;2.10;;
14961;SDS011;56489;53.166;10.864;2022-11-11T16:40:59;2.00;;;1.80;;
14961;SDS011;56489;53.166;10.864;2022-11-11T16:43:32;2.38;;;2.10;;
14961;SDS011;56489;53.166;10.864;2022-11-11T16:46:08;1.83;;;1.73;;
14961;SDS011;56489;53.166;10.864;2022-11-11T16:48:45;1.77;;;1.67;;
14961;SDS011;56489;53.166;10.864;2022-11-11T16:51:23;1.95;;;1.83;;
14961;SDS011;56489;53.166;10.864;2022-11-11T16:54:10;2.08;;;1.80;;
14961;SDS011;56489;53.166;10.864;2022-11-11T16:56:42;1.98;;;1.88;;
14961;SDS011;56489;53.166;10.864;2022-11-11T16:59:18;1.73;;;1.63;;
14961;SDS011;56489;53.166;10.864;2022-11-11T17:01:58;2.85;;;2.03;;
14961;SDS011;56489;53.166;10.864;2022-11-11T17:04:25;1.80;;;1.70;;
14961;SDS011;56489;53.166;10.864;2022-11-11T17:10:15;2.20;;;2.05;;
14961;SDS011;56489;53.166;10.864;2022-11-11T17:12:44;3.03;;;2.65;;
14961;SDS011;56489;53.166;10.864;2022-11-11T17:15:13;3.25;;;2.70;;